Annette Island, AK

3:50 PM AKST on February 13, 2016 (GMT -0900)
Annette Island | | Change Station
CLOSE
Current Station
Airport
Location: Annette Island,
Elevation: 112 ft
Nearby Weather Stations

Elev 112 ft 55.04 °N, 131.57 °W | Updated 57 minutes ago

Light Rain
Light Rain
42 °F
Feels Like 38 °F
N
6
Wind Variable Wind from ESE

Today
High -- | Low -- °F
--% Chance of Precip.
Yesterday
High -- | Low -- °F
Precip. -- in
Pressure 29.63 in
Visibility 10.0 miles
Clouds Few 2600 ft
Mostly Cloudy 3600 ft
Overcast 4500 ft
Windchill 38 °F
Dew Point 38 °F
Humidity 85%
Rainfall 0.11 in
Snow Depth Not available.
7:13 AM 4:48 PM
Waxing Crescent, 36% visible
METAR PANT 132353Z 12005KT 10SM -RA FEW026 BKN036 OVC045 06/03 A2962 RMK AO2 SLP032 P0002 60011 T00560033 10067 20050 56027
Pressure 29.63 in
Visibility 10.0 miles
Clouds Few 2600 ft
Mostly Cloudy 3600 ft
Overcast 4500 ft
Windchill 38 °F
Dew Point 38 °F
Humidity 85%
Rainfall 0.11 in
Snow Depth Not available.
7:13 AM 4:48 PM
Waxing Crescent, 36% visible
METAR PANT 132353Z 12005KT 10SM -RA FEW026 BKN036 OVC045 06/03 A2962 RMK AO2 SLP032 P0002 60011 T00560033 10067 20050 56027

10-Day Weather Forecast

Almanac

Astronomy

Feb. 13, 2016 Rise Set
Actual Time
Civil Twilight
Nautical Twilight
Astronomical Twilight
Moon
Length of Visible Light
Length of Day
Tomorrow will be .
, % of the Moon is Illuminated

Today's Extremes

State Highs State Lows

Community

WunderPhotos

Upload Photos

1,892,715 photos uploaded!

WunderBlog® & News

Nearby

Air Quality

  Air Quality AQ Index Pollutant
Not available.

Snow Depth

Station Depth Elevation

Earthquake Activity

City Distance Mag. Time & Date
Minimum magnitude displayed is 2.5.

Coastal Water Temperatures

Place Temperature

Stations

Nearby Weather Stations

Station Location Temp. Windchill Dew Point Humidity Wind Precip. Elev Updated Type
                   

Watches & Warnings

There are currently no watches in effect.